Time;durP1;ratioP1;P1;durP2;ratioP2;P2;SDS_P1;SDS_P2;PMS_P1;PMS_P2;Temp;Humidity;BMP_temperature;BMP_pressure;BME280_temperature;BME280_humidity;BME280_pressure;Samples;Min_cycle;Max_cycle;Signal;HPM_P1;HPM_P2
2022/05/12 00:01:51;;;;;;;6.90;5.28;;;;;;;17.96;52.81;100024.69;5078698;28;20048;-28
2022/05/12 00:04:17;;;;;;;6.13;5.20;;;;;;;17.92;53.18;100023.13;5082220;28;20061;-31
2022/05/12 00:06:42;;;;;;;6.18;5.72;;;;;;;17.90;53.11;100022.34;5077469;28;20632;-29
2022/05/12 00:09:07;;;;;;;7.22;5.40;;;;;;;17.87;53.27;100027.84;5076431;28;20135;-28
2022/05/12 00:11:33;;;;;;;6.32;5.72;;;;;;;17.83;53.26;100024.44;5078271;28;20028;-28
2022/05/12 00:13:58;;;;;;;5.95;5.18;;;;;;;17.79;53.19;100031.75;5081420;28;20099;-27
2022/05/12 00:16:23;;;;;;;5.53;5.03;;;;;;;17.74;53.46;100012.44;5082028;28;20040;-30
2022/05/12 00:18:48;;;;;;;6.30;5.70;;;;;;;17.74;53.68;100022.25;5079580;28;20035;-27
2022/05/12 00:21:14;;;;;;;6.03;5.05;;;;;;;17.68;53.74;100016.28;5073394;28;20024;-32
2022/05/12 00:23:39;;;;;;;6.25;5.47;;;;;;;17.65;53.51;100019.13;5076755;28;20095;-29
2022/05/12 00:26:05;;;;;;;5.93;5.32;;;;;;;17.64;53.66;100024.53;5098180;28;20039;-27
2022/05/12 00:28:30;;;;;;;6.40;5.65;;;;;;;17.61;54.04;100030.00;5069599;28;20043;-33
2022/05/12 00:30:57;;;;;;;5.78;5.28;;;;;;;17.58;53.94;100036.34;5075195;28;20032;-27
2022/05/12 00:33:25;;;;;;;7.07;5.25;;;;;;;17.56;54.24;100038.22;5081110;28;20020;-29
2022/05/12 00:35:51;;;;;;;7.50;5.43;;;;;;;17.53;54.12;100043.69;5079124;28;20407;-27
2022/05/12 00:38:17;;;;;;;5.97;5.10;;;;;;;17.48;54.34;100041.25;5073595;28;20020;-28
2022/05/12 00:40:43;;;;;;;5.80;5.30;;;;;;;17.47;54.36;100050.19;5083591;28;20032;-28
2022/05/12 00:43:35;;;;;;;5.88;5.25;;;;;;;17.42;54.38;100044.22;5075815;28;20390;-31
2022/05/12 00:46:02;;;;;;;6.13;5.53;;;;;;;17.40;54.58;100043.41;5094092;28;20041;-28
2022/05/12 00:48:27;;;;;;;6.07;5.45;;;;;;;17.36;54.54;100047.16;5081578;28;20028;-28
2022/05/12 00:50:53;;;;;;;6.10;5.50;;;;;;;17.35;54.29;100046.31;5078008;28;20070;-30
2022/05/12 00:53:18;;;;;;;7.55;5.28;;;;;;;17.30;54.61;100046.53;5078689;28;20028;-27
2022/05/12 00:55:44;;;;;;;5.93;5.43;;;;;;;17.28;54.65;100048.38;5079140;28;20503;-28
2022/05/12 00:58:13;;;;;;;5.95;5.30;;;;;;;17.26;54.51;100049.41;5081378;28;20024;-27
2022/05/12 01:00:39;;;;;;;5.95;5.35;;;;;;;17.23;54.60;100061.06;5076208;28;20080;-29
2022/05/12 01:03:08;;;;;;;5.90;5.40;;;;;;;17.19;54.43;100054.16;5080882;28;20028;-30
2022/05/12 01:05:33;;;;;;;5.97;5.40;;;;;;;17.18;54.54;100055.09;5081002;28;20039;-31
2022/05/12 01:07:59;;;;;;;5.57;5.07;;;;;;;17.14;54.43;100053.53;5082531;28;20047;-28
2022/05/12 01:10:25;;;;;;;6.47;5.88;;;;;;;17.11;54.34;100059.00;5078261;28;20460;-28
2022/05/12 01:12:51;;;;;;;5.90;5.35;;;;;;;17.09;54.24;100066.16;5075558;28;20042;-30
2022/05/12 01:15:17;;;;;;;5.60;5.10;;;;;;;17.06;54.29;100067.19;5082566;28;20449;-27
2022/05/12 01:17:44;;;;;;;5.63;5.13;;;;;;;17.04;54.16;100069.88;5082643;28;20035;-31
2022/05/12 01:20:11;;;;;;;5.88;5.28;;;;;;;17.03;54.26;100073.50;5087894;28;20028;-28
2022/05/12 01:22:48;;;;;;;5.60;5.10;;;;;;;17.01;54.25;100078.00;5082101;28;20093;-32
2022/05/12 01:25:19;;;;;;;5.10;4.65;;;;;;;16.98;54.32;100082.63;5079365;28;20338;-28
2022/05/12 01:27:44;;;;;;;5.40;4.90;;;;;;;16.94;54.26;100089.88;5080358;28;20030;-31
2022/05/12 01:30:13;;;;;;;5.75;5.10;;;;;;;16.92;54.35;100081.09;5078417;28;20032;-29
2022/05/12 01:32:39;;;;;;;5.95;4.90;;;;;;;16.90;54.54;100088.28;5084975;28;20033;-28
2022/05/12 01:35:06;;;;;;;5.93;4.63;;;;;;;16.87;54.69;100083.97;5077443;28;20028;-28
2022/05/12 01:37:31;;;;;;;6.35;5.22;;;;;;;16.83;54.98;100098.34;5086305;28;20024;-27
2022/05/12 01:39:57;;;;;;;5.70;5.20;;;;;;;16.83;54.94;100102.81;5077769;28;20039;-30
2022/05/12 01:42:22;;;;;;;5.72;5.05;;;;;;;16.81;55.04;100105.56;5085480;28;20028;-27
2022/05/12 01:44:48;;;;;;;5.55;5.05;;;;;;;16.76;54.88;100103.09;5076711;28;20032;-27
2022/05/12 01:47:14;;;;;;;5.35;4.85;;;;;;;16.75;54.95;100112.03;5079530;28;20031;-28
2022/05/12 01:49:40;;;;;;;7.05;5.82;;;;;;;16.72;55.17;100120.16;5077975;28;20036;-27
2022/05/12 01:52:06;;;;;;;7.22;4.82;;;;;;;16.71;54.86;100121.09;5076478;28;20375;-28
2022/05/12 01:54:31;;;;;;;5.25;4.85;;;;;;;16.67;54.90;100157.63;5081319;28;20032;-29
2022/05/12 01:56:57;;;;;;;4.82;4.28;;;;;;;16.66;55.11;100181.63;5080405;28;20484;-27
2022/05/12 01:59:23;;;;;;;5.35;4.00;;;;;;;16.67;55.68;100194.00;5079865;28;20495;-29
2022/05/12 02:01:49;;;;;;;4.55;4.15;;;;;;;16.65;55.82;100202.09;5075860;28;20027;-28
2022/05/12 02:04:15;;;;;;;5.43;4.35;;;;;;;16.67;56.48;100202.00;5074930;28;20427;-31
2022/05/12 02:06:40;;;;;;;4.88;4.40;;;;;;;16.67;56.68;100215.31;5081928;28;20055;-29
2022/05/12 02:09:06;;;;;;;5.57;4.85;;;;;;;16.66;57.08;100226.91;5083596;28;20793;-29
2022/05/12 02:11:31;;;;;;;5.85;4.47;;;;;;;16.66;57.03;100235.75;5083929;28;20518;-28
2022/05/12 02:13:58;;;;;;;5.28;4.50;;;;;;;16.70;58.28;100241.81;5080503;28;20396;-31
2022/05/12 02:16:25;;;;;;;5.47;4.97;;;;;;;16.70;58.85;100243.63;5076562;28;20391;-27
2022/05/12 02:18:52;;;;;;;6.40;5.57;;;;;;;16.69;58.85;100240.09;5082690;28;20500;-28
2022/05/12 02:21:17;;;;;;;5.72;5.22;;;;;;;16.67;59.28;100242.81;5079874;28;20078;-27
2022/05/12 02:23:43;;;;;;;6.57;5.63;;;;;;;16.68;59.49;100255.19;5081886;28;20024;-28
2022/05/12 02:26:08;;;;;;;10.90;4.68;;;;;;;16.68;59.67;100265.00;5092402;28;20024;-32
2022/05/12 02:28:33;;;;;;;6.43;4.82;;;;;;;16.68;58.86;100265.00;5081685;28;20028;-27
2022/05/12 02:30:59;;;;;;;6.88;4.82;;;;;;;16.67;58.98;100274.75;5083620;28;20361;-27
2022/05/12 02:33:25;;;;;;;7.95;4.07;;;;;;;16.67;58.80;100265.91;5079584;28;20031;-29
2022/05/12 02:35:50;;;;;;;6.20;4.18;;;;;;;16.66;58.88;100266.84;5079704;28;20035;-29
2022/05/12 02:38:16;;;;;;;4.90;4.40;;;;;;;16.66;59.11;100269.50;5081291;28;20028;-29
2022/05/12 02:40:41;;;;;;;6.40;4.43;;;;;;;16.66;58.84;100286.34;5083814;28;20032;-28
2022/05/12 02:43:23;;;;;;;8.15;4.40;;;;;;;16.65;59.24;100300.59;5084857;28;20109;-29
2022/05/12 02:45:50;;;;;;;7.22;4.60;;;;;;;16.67;58.97;100319.16;5083394;28;20041;-28
2022/05/12 02:48:17;;;;;;;5.97;4.68;;;;;;;16.67;59.38;100321.81;5084654;28;20031;-28
2022/05/12 02:50:43;;;;;;;7.13;4.13;;;;;;;16.65;59.24;100294.41;5078894;28;20487;-30
2022/05/12 02:53:08;;;;;;;6.75;3.75;;;;;;;16.66;59.31;100288.13;5075628;28;20031;-28
2022/05/12 02:55:33;;;;;;;7.93;4.57;;;;;;;16.65;59.26;100287.28;5081065;28;20110;-29
2022/05/12 02:57:59;;;;;;;6.43;3.95;;;;;;;16.64;59.34;100295.34;5077121;28;20051;-28
2022/05/12 03:00:24;;;;;;;5.35;4.28;;;;;;;16.64;59.00;100303.31;5081718;28;20110;-29
2022/05/12 03:02:49;;;;;;;7.38;4.55;;;;;;;16.64;59.38;100316.63;5079813;28;20500;-28
2022/05/12 03:05:15;;;;;;;6.30;4.38;;;;;;;16.63;58.84;100325.53;5081181;28;20065;-28
2022/05/12 03:07:41;;;;;;;6.93;4.20;;;;;;;16.64;59.27;100321.97;5077179;28;20023;-27
2022/05/12 03:10:07;;;;;;;10.00;4.35;;;;;;;16.62;58.86;100337.13;5084544;28;20039;-28
2022/05/12 03:12:32;;;;;;;8.00;5.75;;;;;;;16.62;59.34;100338.00;5081258;28;20027;-28
2022/05/12 03:14:57;;;;;;;6.25;3.80;;;;;;;16.61;59.42;100335.38;5082205;28;20028;-27
2022/05/12 03:17:23;;;;;;;8.50;4.40;;;;;;;16.61;58.94;100338.03;5085703;28;20036;-28
2022/05/12 03:19:48;;;;;;;7.70;3.90;;;;;;;16.62;59.46;100347.75;5081702;28;20032;-28
2022/05/12 03:22:13;;;;;;;10.27;4.82;;;;;;;16.63;59.53;100357.47;5075645;28;20050;-28
2022/05/12 03:24:39;;;;;;;9.57;4.18;;;;;;;16.59;59.56;100350.53;5083379;28;20069;-27
2022/05/12 03:27:04;;;;;;;4.45;3.75;;;;;;;16.61;59.30;100376.16;5077407;28;20479;-28
2022/05/12 03:29:29;;;;;;;5.78;3.88;;;;;;;16.61;59.57;100383.31;5079693;28;20507;-27
2022/05/12 03:31:55;;;;;;;7.47;4.15;;;;;;;16.60;59.66;100389.56;5079924;28;20046;-29
2022/05/12 03:34:20;;;;;;;8.00;4.75;;;;;;;16.57;59.86;100387.88;5086485;28;20031;-28
2022/05/12 03:36:45;;;;;;;6.53;3.97;;;;;;;16.60;59.41;100390.41;5080479;28;20050;-27
2022/05/12 03:39:11;;;;;;;5.55;4.10;;;;;;;16.58;59.30;100380.75;5075796;28;20082;-28
2022/05/12 03:41:36;;;;;;;5.53;3.55;;;;;;;16.58;59.43;100396.72;5079793;28;20413;-29
2022/05/12 03:46:45;;;;;;;8.13;3.63;;;;;;;16.59;58.97;100387.81;5080979;28;20035;-28
2022/05/12 03:49:11;;;;;;;6.57;3.40;;;;;;;16.57;59.25;100395.00;5082100;28;20028;-28
2022/05/12 03:51:36;;;;;;;5.30;3.38;;;;;;;16.57;59.21;100395.84;5077867;28;20107;-27
2022/05/12 03:54:03;;;;;;;3.00;2.75;;;;;;;16.58;59.70;100415.38;5080562;28;20020;-27
2022/05/12 03:56:29;;;;;;;6.88;3.00;;;;;;;16.57;59.91;100416.31;5075285;28;20332;-28
2022/05/12 03:58:55;;;;;;;4.50;2.75;;;;;;;16.57;59.49;100422.47;5081494;28;20027;-31
2022/05/12 04:01:21;;;;;;;3.95;3.45;;;;;;;16.55;59.34;100422.53;5077953;28;20680;-27
2022/05/12 04:03:46;;;;;;;3.13;2.88;;;;;;;16.57;59.94;100421.63;5081943;28;20050;-28
2022/05/12 04:06:12;;;;;;;3.03;2.83;;;;;;;16.59;60.67;100427.75;5082436;28;20472;-27
2022/05/12 04:08:37;;;;;;;3.80;3.25;;;;;;;16.61;59.90;100431.22;5078968;28;20506;-28
2022/05/12 04:11:03;;;;;;;3.33;2.63;;;;;;;16.61;59.92;100439.22;5081835;28;20036;-27
2022/05/12 04:13:29;;;;;;;5.05;2.80;;;;;;;16.62;60.24;100452.47;5080879;28;20431;-28
2022/05/12 04:15:54;;;;;;;3.00;2.30;;;;;;;16.64;59.85;100444.44;5085937;28;20073;-28
2022/05/12 04:18:19;;;;;;;6.90;2.20;;;;;;;16.62;60.06;100459.56;5078405;28;20109;-28
2022/05/12 04:20:45;;;;;;;3.47;2.28;;;;;;;16.63;59.73;100475.50;5080827;28;20028;-29
2022/05/12 04:23:10;;;;;;;5.00;1.77;;;;;;;16.62;59.71;100487.09;5081031;28;20024;-29
2022/05/12 04:25:36;;;;;;;7.28;2.20;;;;;;;16.63;59.71;100498.59;5081969;28;20024;-29
2022/05/12 04:28:03;;;;;;;4.07;2.25;;;;;;;16.63;59.66;100501.25;5076236;28;20024;-28
2022/05/12 04:30:29;;;;;;;3.75;2.28;;;;;;;16.64;59.89;100503.00;5084818;28;20028;-29
2022/05/12 04:32:55;;;;;;;5.82;2.17;;;;;;;16.63;60.13;100506.56;5083190;28;20078;-30
2022/05/12 04:35:20;;;;;;;3.17;1.65;;;;;;;16.64;59.62;100516.31;5072672;28;20384;-28
2022/05/12 04:37:50;;;;;;;2.67;1.98;;;;;;;16.63;59.67;100511.91;5081814;28;20032;-28
2022/05/12 04:40:25;;;;;;;2.78;2.15;;;;;;;16.65;59.58;100520.72;5100879;28;20111;-27
2022/05/12 04:42:52;;;;;;;1.92;1.70;;;;;;;16.66;59.41;100522.44;5072174;28;20060;-28
2022/05/12 04:45:19;;;;;;;1.98;1.80;;;;;;;16.65;58.86;100534.91;5082116;28;20027;-29
2022/05/12 04:47:45;;;;;;;2.92;2.08;;;;;;;16.64;58.80;100546.47;5080436;28;20023;-27
2022/05/12 04:50:17;;;;;;;3.42;1.67;;;;;;;16.63;58.29;100542.06;5083591;28;20022;-30
2022/05/12 04:52:43;;;;;;;3.22;1.50;;;;;;;16.63;58.11;100552.72;5084325;28;20081;-30
2022/05/12 04:55:10;;;;;;;1.60;1.50;;;;;;;16.60;57.99;100559.97;5085748;28;20047;-27
2022/05/12 04:57:39;;;;;;;2.75;1.40;;;;;;;16.62;57.71;100558.09;5085648;28;20034;-29
2022/05/12 05:00:08;;;;;;;1.50;1.40;;;;;;;16.62;57.37;100576.72;5085723;28;20092;-27
2022/05/12 05:02:34;;;;;;;4.10;1.35;;;;;;;16.62;57.27;100569.63;5084281;28;20048;-27
2022/05/12 05:04:59;;;;;;;2.25;1.40;;;;;;;16.63;56.97;100581.13;5081884;28;20051;-29
2022/05/12 05:07:26;;;;;;;5.22;1.30;;;;;;;16.64;56.63;100590.88;5087162;28;20039;-29
2022/05/12 05:09:51;;;;;;;1.63;1.17;;;;;;;16.62;56.84;100595.38;5078593;28;20044;-27
2022/05/12 05:12:17;;;;;;;2.70;1.30;;;;;;;16.63;57.00;100608.63;5080864;28;20071;-31
2022/05/12 05:14:43;;;;;;;4.70;1.77;;;;;;;16.64;56.96;100609.50;5083425;28;20070;-27
2022/05/12 05:17:09;;;;;;;4.63;1.40;;;;;;;16.66;56.97;100621.84;5087791;28;20464;-27
2022/05/12 05:19:35;;;;;;;2.92;1.20;;;;;;;16.68;56.96;100629.78;5087340;28;20028;-27
2022/05/12 05:22:00;;;;;;;3.10;1.20;;;;;;;16.70;56.60;100638.56;5084553;28;20395;-28
2022/05/12 05:24:26;;;;;;;4.68;1.30;;;;;;;16.72;56.13;100641.16;5078934;28;20024;-28
2022/05/12 05:26:51;;;;;;;2.97;1.20;;;;;;;16.72;56.00;100638.50;5083962;28;20019;-28
2022/05/12 05:29:17;;;;;;;6.38;1.52;;;;;;;16.73;55.37;100659.75;5087646;28;20067;-29
2022/05/12 05:31:42;;;;;;;5.13;1.65;;;;;;;16.74;55.20;100668.63;5085557;28;20028;-28
2022/05/12 05:34:09;;;;;;;4.60;1.48;;;;;;;16.75;54.85;100665.91;5086351;28;20053;-28
2022/05/12 05:36:35;;;;;;;3.20;1.73;;;;;;;16.78;54.68;100676.44;5088329;28;20028;-28
2022/05/12 05:39:00;;;;;;;4.70;1.67;;;;;;;16.79;54.50;100688.84;5081916;28;20035;-27
2022/05/12 05:41:26;;;;;;;2.70;1.60;;;;;;;16.83;54.65;100702.03;5080664;28;20032;-31
2022/05/12 05:43:51;;;;;;;2.53;1.63;;;;;;;16.83;54.75;100710.91;5083144;28;20105;-27
2022/05/12 05:46:16;;;;;;;1.55;1.30;;;;;;;16.84;55.48;100719.78;5080219;28;20089;-28
2022/05/12 05:48:43;;;;;;;6.10;1.67;;;;;;;16.87;55.74;100733.84;5085956;28;20024;-27
2022/05/12 05:53:54;;;;;;;1.77;1.52;;;;;;;16.90;56.34;100744.41;5082311;28;20073;-28
2022/05/12 05:56:20;;;;;;;4.78;1.38;;;;;;;16.93;56.32;100756.75;5081842;28;20033;-27
2022/05/12 05:58:46;;;;;;;2.53;1.23;;;;;;;16.94;55.91;100766.47;5084396;28;20027;-28
2022/05/12 06:01:11;;;;;;;1.75;1.50;;;;;;;16.94;56.04;100769.13;5081415;28;20491;-28
2022/05/12 06:03:37;;;;;;;2.78;1.20;;;;;;;16.93;55.53;100775.38;5086912;28;20044;-29
2022/05/12 06:06:03;;;;;;;5.55;1.30;;;;;;;16.97;55.28;100782.34;5084688;28;20028;-28
2022/05/12 06:08:28;;;;;;;3.90;1.60;;;;;;;16.96;55.10;100785.94;5082338;28;20036;-27
2022/05/12 06:10:53;;;;;;;3.58;1.33;;;;;;;16.99;54.87;100796.50;5079602;28;20153;-27
2022/05/12 06:13:19;;;;;;;2.35;1.13;;;;;;;17.01;54.88;100793.78;5083006;28;20020;-29
2022/05/12 06:15:44;;;;;;;3.13;1.05;;;;;;;17.02;54.65;100801.72;5084695;28;20032;-28
2022/05/12 06:18:13;;;;;;;2.70;1.00;;;;;;;17.04;54.61;100810.53;5083743;28;20032;-28
2022/05/12 06:20:41;;;;;;;3.20;0.90;;;;;;;17.04;54.59;100815.84;5084854;28;20016;-30
2022/05/12 06:23:08;;;;;;;3.03;1.05;;;;;;;17.05;54.40;100822.06;5083442;28;20081;-28
2022/05/12 06:25:33;;;;;;;5.57;1.05;;;;;;;17.08;54.00;100834.44;5083081;28;20078;-29
2022/05/12 06:27:59;;;;;;;3.00;0.80;;;;;;;17.10;53.78;100835.28;5086151;28;20404;-27
2022/05/12 06:30:24;;;;;;;3.60;1.23;;;;;;;17.14;53.64;100843.09;5082148;28;20020;-27
2022/05/12 06:32:51;;;;;;;2.55;0.68;;;;;;;17.16;53.53;100835.03;5080009;28;20020;-28
2022/05/12 06:35:16;;;;;;;2.50;0.80;;;;;;;17.17;53.45;100847.44;5078335;28;20024;-28
2022/05/12 06:37:42;;;;;;;1.33;0.60;;;;;;;17.18;53.25;100843.88;5080911;28;20077;-27
2022/05/12 06:40:08;;;;;;;3.45;0.65;;;;;;;17.22;53.18;100858.84;5082305;28;20024;-28
2022/05/12 06:42:35;;;;;;;3.47;0.80;;;;;;;17.24;53.25;100846.31;5079162;28;20119;-27
2022/05/12 06:45:01;;;;;;;1.10;0.70;;;;;;;17.25;52.84;100861.41;5081952;28;20392;-28
2022/05/12 06:47:27;;;;;;;0.85;0.50;;;;;;;17.29;52.73;100852.38;5086939;28;20031;-28
2022/05/12 06:49:53;;;;;;;1.38;0.75;;;;;;;17.31;52.75;100853.16;5082160;28;20024;-28
2022/05/12 06:52:18;;;;;;;5.05;0.93;;;;;;;17.34;52.69;100854.00;5080923;28;20024;-28
2022/05/12 06:54:44;;;;;;;0.95;0.73;;;;;;;17.38;52.69;100848.53;5080319;28;20040;-29
2022/05/12 06:57:12;;;;;;;3.45;0.77;;;;;;;17.38;51.82;100855.63;5083431;28;20448;-27
2022/05/12 06:59:39;;;;;;;0.85;0.60;;;;;;;17.43;52.13;100864.31;5079984;28;20062;-27
2022/05/12 07:02:05;;;;;;;0.93;0.70;;;;;;;17.48;52.24;100873.06;5081398;28;20472;-27
2022/05/12 07:04:31;;;;;;;1.60;0.57;;;;;;;17.52;52.11;100884.47;5084601;28;20058;-28
2022/05/12 07:06:57;;;;;;;2.65;0.70;;;;;;;17.55;51.79;100882.56;5083173;28;20058;-28
2022/05/12 07:09:22;;;;;;;1.58;0.57;;;;;;;17.57;52.26;100899.38;5080266;28;20032;-28
2022/05/12 07:11:48;;;;;;;0.93;0.50;;;;;;;17.64;51.71;100892.03;5080284;28;20047;-27
2022/05/12 07:14:14;;;;;;;0.55;0.50;;;;;;;17.70;52.06;100893.63;5080796;28;20043;-30
2022/05/12 07:16:42;;;;;;;3.00;0.85;;;;;;;17.74;52.03;100897.91;5085694;28;20437;-27
2022/05/12 07:19:07;;;;;;;0.82;0.60;;;;;;;17.79;52.08;100906.63;5081149;28;20120;-29
2022/05/12 07:27:00;;;;;;;5.18;0.60;;;;;;;17.94;51.32;100917.69;5080010;28;20387;-27
2022/05/12 07:29:27;;;;;;;1.25;0.52;;;;;;;18.01;51.79;100913.00;5086692;28;20119;-28
2022/05/12 07:31:53;;;;;;;1.20;0.65;;;;;;;18.06;51.86;100916.34;5081639;28;20063;-27
2022/05/12 07:34:20;;;;;;;0.52;0.40;;;;;;;18.15;51.92;100915.19;5082640;28;20048;-28
2022/05/12 07:36:50;;;;;;;1.23;0.77;;;;;;;18.23;51.85;100929.09;5067428;28;20036;-28
2022/05/12 07:39:17;;;;;;;1.52;0.70;;;;;;;18.31;51.94;100929.69;5086614;28;20016;-27
2022/05/12 07:41:42;;;;;;;2.80;0.63;;;;;;;18.37;51.84;100930.41;5076671;28;20106;-27
2022/05/12 07:44:13;;;;;;;0.60;0.60;;;;;;;18.47;52.66;100926.44;5084368;28;20012;-27
2022/05/12 07:46:39;;;;;;;0.70;0.65;;;;;;;18.54;52.33;100935.94;5086255;28;20059;-28
2022/05/12 07:49:04;;;;;;;0.80;0.57;;;;;;;18.61;51.76;100952.63;5077784;28;20473;-31
2022/05/12 07:51:30;;;;;;;1.45;0.60;;;;;;;18.71;52.39;100955.81;5086380;28;20105;-27
2022/05/12 07:53:55;;;;;;;3.70;0.60;;;;;;;18.80;52.46;100960.78;5082134;28;20391;-27
2022/05/12 07:56:22;;;;;;;1.48;0.52;;;;;;;18.88;52.39;100956.94;5083221;28;20063;-28
2022/05/12 07:58:48;;;;;;;0.50;0.50;;;;;;;18.98;52.95;100966.34;5078376;28;20024;-27
2022/05/12 08:01:15;;;;;;;5.78;1.13;;;;;;;19.06;52.60;100968.69;5083166;28;20051;-28
2022/05/12 08:03:40;;;;;;;2.13;1.27;;;;;;;19.14;52.02;100963.09;5081549;28;20034;-29
2022/05/12 08:06:07;;;;;;;0.75;0.73;;;;;;;19.23;51.68;100960.03;5080312;28;20131;-28
2022/05/12 08:08:32;;;;;;;1.08;0.75;;;;;;;19.32;52.16;100967.69;5086095;28;20028;-27
2022/05/12 08:10:58;;;;;;;1.20;0.38;;;;;;;19.40;52.70;100969.16;5080321;28;20036;-27
2022/05/12 08:13:25;;;;;;;1.60;0.70;;;;;;;19.48;51.30;100967.03;5084321;28;20035;-28
2022/05/12 08:15:51;;;;;;;0.88;0.70;;;;;;;19.56;52.95;100972.94;5079894;28;20077;-28
2022/05/12 08:18:18;;;;;;;0.68;0.60;;;;;;;19.69;51.80;100980.44;5078370;28;20084;-28
2022/05/12 08:20:45;;;;;;;2.25;0.60;;;;;;;19.78;51.99;100980.06;5082624;28;20035;-31
2022/05/12 08:23:11;;;;;;;2.03;0.70;;;;;;;19.82;49.95;100976.31;5083179;28;20020;-29
2022/05/12 08:25:37;;;;;;;0.63;0.63;;;;;;;19.95;51.63;100975.75;5085935;28;20027;-28
2022/05/12 08:28:02;;;;;;;1.15;0.60;;;;;;;20.03;51.74;100973.63;5089691;28;20024;-27
2022/05/12 08:30:29;;;;;;;2.00;0.70;;;;;;;20.10;50.83;100975.13;5085143;28;20239;-28
2022/05/12 08:32:55;;;;;;;1.98;0.77;;;;;;;20.21;51.26;100973.78;5086834;28;20017;-28
2022/05/12 08:35:20;;;;;;;4.05;1.00;;;;;;;20.32;50.98;100978.63;5101832;28;20089;-29
2022/05/12 08:37:45;;;;;;;1.15;0.40;;;;;;;20.41;50.09;100978.22;5085475;28;20157;-28
2022/05/12 08:40:16;;;;;;;1.38;0.50;;;;;;;20.52;50.85;100988.44;5081599;28;20480;-27
2022/05/12 08:42:44;;;;;;;1.05;0.85;;;;;;;20.64;51.07;100998.56;5084694;28;20467;-27
2022/05/12 08:45:12;;;;;;;1.38;0.85;;;;;;;20.72;51.05;100997.34;5085593;28;20029;-28
2022/05/12 08:47:48;;;;;;;3.25;0.75;;;;;;;20.84;51.39;100999.44;5085080;28;20016;-27
2022/05/12 08:50:26;;;;;;;0.90;0.60;;;;;;;20.95;51.00;100996.31;5086223;28;20032;-28
2022/05/12 08:53:11;;;;;;;1.95;0.85;;;;;;;21.03;50.82;101001.28;5087191;28;20036;-28
2022/05/12 08:55:39;;;;;;;1.10;0.63;;;;;;;21.15;50.26;101000.69;5085197;28;20038;-27
2022/05/12 08:58:06;;;;;;;1.58;0.70;;;;;;;21.24;50.30;101003.88;5085127;28;20028;-27
2022/05/12 09:00:38;;;;;;;1.63;0.75;;;;;;;21.34;50.39;100999.78;5086295;28;20042;-28
2022/05/12 09:03:25;;;;;;;2.45;0.70;;;;;;;21.39;49.77;101003.13;5082627;28;20038;-29
2022/05/12 09:06:00;;;;;;;0.98;0.70;;;;;;;21.50;49.48;100999.00;5089871;28;20031;-28
2022/05/12 09:08:50;;;;;;;4.65;1.00;;;;;;;21.61;49.63;100996.66;5081544;28;20106;-28
2022/05/12 09:11:29;;;;;;;3.77;0.80;;;;;;;21.72;49.39;100997.94;5083816;28;20020;-28
2022/05/12 09:13:55;;;;;;;1.25;0.90;;;;;;;21.81;49.48;100996.63;5082928;28;20327;-28
2022/05/12 09:16:24;;;;;;;0.98;0.60;;;;;;;21.90;49.57;100994.34;5087007;28;20099;-28
2022/05/12 09:18:51;;;;;;;1.67;0.70;;;;;;;22.01;49.46;100987.53;5069530;28;20805;-27
2022/05/12 09:21:26;;;;;;;1.60;0.63;;;;;;;22.07;49.15;100984.50;5081557;28;20024;-30
2022/05/12 09:23:52;;;;;;;0.85;0.63;;;;;;;22.14;48.88;100996.69;5086101;28;20012;-29
2022/05/12 09:26:51;;;;;;;4.32;0.80;;;;;;;22.21;47.48;100996.38;5084239;28;20034;-27
2022/05/12 09:29:24;;;;;;;0.80;0.70;;;;;;;22.33;47.81;100995.69;5071059;28;20051;-28
2022/05/12 09:32:09;;;;;;;2.78;0.80;;;;;;;22.45;48.57;101007.63;5081619;28;20024;-27
2022/05/12 09:34:35;;;;;;;0.70;0.65;;;;;;;22.51;47.76;101001.03;5073989;28;20036;-28
2022/05/12 09:37:13;;;;;;;0.82;0.82;;;;;;;22.62;48.18;101005.84;5083363;28;20034;-28
2022/05/12 09:39:41;;;;;;;0.90;0.50;;;;;;;22.68;47.62;101009.06;5084067;28;20020;-28
2022/05/12 09:42:09;;;;;;;0.40;0.40;;;;;;;22.77;47.04;101009.53;5083624;28;20444;-28
2022/05/12 09:44:35;;;;;;;2.65;0.80;;;;;;;22.85;47.36;101009.97;5083825;28;20383;-27
2022/05/12 09:47:10;;;;;;;1.55;0.80;;;;;;;22.94;47.26;101008.56;5084005;28;20032;-27
2022/05/12 09:49:38;;;;;;;1.15;0.60;;;;;;;23.01;47.67;101014.47;5083533;28;20037;-27
2022/05/12 09:52:25;;;;;;;1.15;0.93;;;;;;;23.10;46.51;101008.56;5083986;28;20023;-27
2022/05/12 09:55:08;;;;;;;1.95;0.60;;;;;;;23.18;46.11;101006.28;5081558;28;20713;-29
2022/05/12 09:57:35;;;;;;;1.48;0.65;;;;;;;23.32;46.85;101010.03;5082785;28;20028;-30
2022/05/12 10:00:03;;;;;;;1.23;0.70;;;;;;;23.40;45.52;101013.16;5081287;28;20051;-27
2022/05/12 10:08:22;;;;;;;0.75;0.60;;;;;;;23.69;45.26;101007.03;5076859;28;20048;-29
2022/05/12 10:10:53;;;;;;;2.13;0.80;;;;;;;23.76;45.50;101005.69;5080974;28;20499;-27
2022/05/12 10:13:26;;;;;;;3.17;0.80;;;;;;;23.89;45.58;101004.97;5087655;28;20065;-27
2022/05/12 10:15:53;;;;;;;2.25;0.80;;;;;;;23.95;45.23;101001.91;5085023;28;20024;-27
2022/05/12 10:18:40;;;;;;;2.97;0.63;;;;;;;24.03;45.03;101006.81;5069200;28;20020;-28
2022/05/12 10:21:26;;;;;;;1.50;0.50;;;;;;;24.09;44.85;101007.31;5084823;28;20085;-29
2022/05/12 10:24:23;;;;;;;1.33;0.70;;;;;;;24.10;43.56;100997.38;5084236;28;20160;-27
2022/05/12 10:26:56;;;;;;;1.58;0.75;;;;;;;24.16;43.49;100997.06;5097744;28;20028;-28
2022/05/12 10:29:27;;;;;;;1.52;0.77;;;;;;;24.21;43.98;100997.63;5082949;28;20020;-27
2022/05/12 10:32:18;;;;;;;1.73;0.90;;;;;;;24.27;44.96;101004.47;5086463;28;20048;-30
2022/05/12 10:35:22;;;;;;;1.52;0.68;;;;;;;24.33;44.44;101004.09;5081057;28;20137;-28
2022/05/12 10:38:05;;;;;;;0.73;0.73;;;;;;;24.37;43.42;101002.06;5080384;28;20036;-28
2022/05/12 10:40:36;;;;;;;2.13;0.82;;;;;;;24.44;43.80;101003.41;5081056;28;20036;-27
2022/05/12 10:43:36;;;;;;;0.50;0.50;;;;;;;24.51;42.64;100997.66;5083457;28;20016;-27
2022/05/12 10:46:35;;;;;;;0.95;0.70;;;;;;;24.56;42.80;101003.59;5083898;28;20116;-27
2022/05/12 10:49:19;;;;;;;2.28;0.90;;;;;;;24.57;43.36;101000.81;5082839;28;20027;-28
2022/05/12 10:51:58;;;;;;;1.50;0.80;;;;;;;24.56;42.89;101000.91;5082484;28;20066;-30
2022/05/12 10:54:32;;;;;;;1.25;0.82;;;;;;;24.55;42.32;101002.75;5079850;28;20426;-29
2022/05/12 10:57:10;;;;;;;2.15;0.75;;;;;;;24.57;43.53;101005.31;5077491;28;20491;-27
2022/05/12 10:59:42;;;;;;;0.70;0.60;;;;;;;24.59;43.36;101012.38;5083209;28;20023;-28
2022/05/12 11:02:10;;;;;;;1.45;0.70;;;;;;;24.59;43.78;101014.19;5081769;28;20024;-27
2022/05/12 11:04:41;;;;;;;1.52;0.68;;;;;;;24.63;44.35;101007.63;5082916;28;20077;-29
2022/05/12 11:07:44;;;;;;;1.63;0.70;;;;;;;24.68;43.88;101010.91;5081955;28;20158;-28
2022/05/12 11:10:31;;;;;;;0.88;0.80;;;;;;;24.75;43.70;101013.22;5094313;28;20507;-27
2022/05/12 11:13:01;;;;;;;1.55;0.80;;;;;;;24.78;42.23;101013.03;5080519;28;20118;-30
2022/05/12 11:15:31;;;;;;;1.05;0.90;;;;;;;24.78;41.11;101007.63;5081434;28;20504;-27
2022/05/12 11:18:00;;;;;;;2.40;1.27;;;;;;;24.82;41.67;101006.47;5100830;28;20036;-27
2022/05/12 11:20:28;;;;;;;1.00;0.85;;;;;;;24.83;41.86;101003.66;5078929;28;20349;-28
2022/05/12 11:23:01;;;;;;;1.88;1.00;;;;;;;24.83;42.67;101008.19;5081501;28;20558;-27
2022/05/12 11:25:37;;;;;;;1.88;0.70;;;;;;;24.86;42.54;101002.63;5079551;28;20048;-29
2022/05/12 11:31:19;;;;;;;1.10;0.80;;;;;;;24.85;41.98;101011.66;5083775;28;20043;-29
2022/05/12 11:33:50;;;;;;;4.72;1.02;;;;;;;24.83;41.54;101006.38;5079135;28;20048;-28
2022/05/12 11:36:16;;;;;;;0.70;0.70;;;;;;;24.81;41.94;101002.88;5080561;28;20016;-31
2022/05/12 11:38:53;;;;;;;2.97;0.98;;;;;;;24.81;41.37;101004.75;5080875;28;20024;-29
2022/05/12 11:41:27;;;;;;;2.10;0.80;;;;;;;24.81;40.78;101002.03;5095796;28;20080;-27
2022/05/12 11:47:06;;;;;;;1.05;0.80;;;;;;;24.82;41.70;100992.97;5082754;28;20572;-28
2022/05/12 11:49:32;;;;;;;0.80;0.80;;;;;;;24.81;40.90;101002.03;5081563;28;20032;-27
2022/05/12 11:52:46;;;;;;;0.63;0.63;;;;;;;24.86;41.97;100997.25;5081811;28;20537;-29
2022/05/12 11:55:52;;;;;;;0.75;0.73;;;;;;;24.88;41.99;100984.53;5074198;28;20506;-28